createdAt,value
2023-03-22T00:01:43.133Z,10.49
2023-03-22T00:04:11.472Z,10.48
2023-03-22T00:06:39.360Z,10.48
2023-03-22T00:09:07.087Z,10.47
2023-03-22T00:11:34.821Z,10.46
2023-03-22T00:14:02.588Z,10.43
2023-03-22T00:16:30.558Z,10.43
2023-03-22T00:18:58.412Z,10.45
2023-03-22T00:21:26.202Z,10.46
2023-03-22T00:23:53.940Z,10.46
2023-03-22T00:26:21.811Z,10.44
2023-03-22T00:28:49.823Z,10.43
2023-03-22T00:31:17.857Z,10.40
2023-03-22T00:33:45.723Z,10.37
2023-03-22T00:36:13.853Z,10.36
2023-03-22T00:38:44.105Z,10.33
2023-03-22T00:41:16.129Z,10.32
2023-03-22T00:43:46.800Z,10.34
2023-03-22T00:46:15.507Z,10.36
2023-03-22T00:48:43.589Z,10.39
2023-03-22T00:51:11.930Z,10.40
2023-03-22T00:53:43.096Z,10.39
2023-03-22T00:56:15.900Z,10.39
2023-03-22T00:58:47.157Z,10.34
2023-03-22T01:01:15.345Z,10.34
2023-03-22T01:03:44.069Z,10.35
2023-03-22T01:06:15.500Z,10.36
2023-03-22T01:08:43.304Z,10.36
2023-03-22T01:11:11.225Z,10.34
2023-03-22T01:13:39.486Z,10.36
2023-03-22T01:16:08.413Z,10.34
2023-03-22T01:18:36.780Z,10.30
2023-03-22T01:21:05.199Z,10.27
2023-03-22T01:23:33.476Z,10.23
2023-03-22T01:26:01.611Z,10.24
2023-03-22T01:28:30.384Z,10.26
2023-03-22T01:31:01.869Z,10.25
2023-03-22T01:33:30.585Z,10.29
2023-03-22T01:35:58.797Z,10.29
2023-03-22T01:38:26.925Z,10.28
2023-03-22T01:40:57.881Z,10.30
2023-03-22T01:43:26.109Z,10.24
2023-03-22T01:45:55.329Z,10.16
2023-03-22T01:48:36.201Z,10.16
2023-03-22T01:51:09.846Z,10.22
2023-03-22T01:53:58.244Z,10.24
2023-03-22T01:56:28.814Z,10.20
2023-03-22T01:58:57.307Z,10.23
2023-03-22T02:01:31.977Z,10.27
2023-03-22T02:04:12.365Z,10.28
2023-03-22T02:06:41.080Z,10.29
2023-03-22T02:09:14.680Z,10.30
2023-03-22T02:11:44.453Z,10.35
2023-03-22T02:14:29.464Z,10.41
2023-03-22T02:18:07.168Z,10.40
2023-03-22T02:20:53.058Z,10.37
2023-03-22T02:23:46.797Z,10.41
2023-03-22T02:26:23.730Z,10.43
2023-03-22T02:28:54.531Z,10.43
2023-03-22T02:31:56.907Z,10.47
2023-03-22T02:34:36.468Z,10.49
2023-03-22T02:37:10.668Z,10.57
2023-03-22T02:39:48.009Z,10.60
2023-03-22T02:42:40.216Z,10.60
2023-03-22T02:45:11.442Z,10.62
2023-03-22T02:47:59.524Z,10.64
2023-03-22T02:50:52.390Z,10.62
2023-03-22T02:53:26.253Z,10.64
2023-03-22T02:56:03.967Z,10.65
2023-03-22T02:58:45.888Z,10.67
2023-03-22T03:01:20.090Z,10.71
2023-03-22T03:03:49.946Z,10.73
2023-03-22T03:06:20.469Z,10.71
2023-03-22T03:08:50.986Z,10.70
2023-03-22T03:11:20.114Z,10.69
2023-03-22T03:13:50.383Z,10.69
2023-03-22T03:16:21.255Z,10.69
2023-03-22T03:19:08.041Z,10.63
2023-03-22T03:22:00.212Z,10.60
2023-03-22T03:24:34.875Z,10.65
2023-03-22T03:27:20.192Z,10.69
2023-03-22T03:29:51.505Z,10.69
2023-03-22T03:32:35.367Z,10.69
2023-03-22T03:35:22.717Z,10.73
2023-03-22T03:37:59.034Z,10.73
2023-03-22T03:40:31.197Z,10.70
2023-03-22T03:42:59.943Z,10.67
2023-03-22T03:45:27.890Z,10.64
2023-03-22T03:48:00.884Z,10.64
2023-03-22T03:50:29.228Z,10.63
2023-03-22T03:52:57.982Z,10.65
2023-03-22T03:55:26.729Z,10.68
2023-03-22T03:57:54.552Z,10.71
2023-03-22T04:00:22.561Z,10.73
2023-03-22T04:03:10.232Z,10.67
2023-03-22T04:05:56.879Z,10.60
2023-03-22T04:08:25.325Z,10.57
2023-03-22T04:10:53.581Z,10.57
2023-03-22T04:13:21.697Z,10.59
2023-03-22T04:15:54.285Z,10.59
2023-03-22T04:18:22.074Z,10.57
2023-03-22T04:20:53.439Z,10.56
2023-03-22T04:23:23.218Z,10.56
2023-03-22T04:25:52.127Z,10.53
2023-03-22T04:28:30.024Z,10.50
2023-03-22T04:30:58.017Z,10.48
2023-03-22T04:33:49.923Z,10.49
2023-03-22T04:36:31.131Z,10.49
2023-03-22T04:39:13.461Z,10.52
2023-03-22T04:41:42.032Z,10.52
2023-03-22T04:44:09.885Z,10.56
2023-03-22T04:46:42.746Z,10.56
2023-03-22T04:49:11.201Z,10.54
2023-03-22T04:51:40.397Z,10.53
2023-03-22T04:54:20.387Z,10.54
2023-03-22T04:56:48.454Z,10.57
2023-03-22T04:59:20.491Z,10.61
2023-03-22T05:01:50.565Z,10.64
2023-03-22T05:04:22.409Z,10.67
2023-03-22T05:06:53.600Z,10.68
2023-03-22T05:09:26.236Z,10.67
2023-03-22T05:11:54.503Z,10.61
2023-03-22T05:14:33.601Z,10.51
2023-03-22T05:17:01.785Z,10.41
2023-03-22T05:19:29.895Z,10.26
2023-03-22T05:21:58.533Z,10.22
2023-03-22T05:24:36.022Z,10.29
2023-03-22T05:27:04.200Z,10.36
2023-03-22T05:29:36.998Z,10.44
2023-03-22T05:32:12.058Z,10.52
2023-03-22T05:34:42.867Z,10.57
2023-03-22T05:37:23.633Z,10.56
2023-03-22T05:39:54.688Z,10.54
2023-03-22T05:42:26.563Z,10.56
2023-03-22T05:44:54.576Z,10.60
2023-03-22T05:47:22.643Z,10.68
2023-03-22T05:50:08.874Z,10.77
2023-03-22T05:52:37.119Z,10.84
2023-03-22T05:55:34.259Z,10.92
2023-03-22T05:58:05.103Z,10.96
2023-03-22T06:00:34.073Z,11.00
2023-03-22T06:03:20.668Z,11.00
2023-03-22T06:05:59.121Z,11.03
2023-03-22T06:08:49.911Z,11.11
2023-03-22T06:11:19.355Z,11.18
2023-03-22T06:13:47.566Z,11.28
2023-03-22T06:16:16.493Z,11.44
2023-03-22T06:18:44.655Z,11.61
2023-03-22T06:21:13.380Z,11.74
2023-03-22T06:23:43.596Z,11.86
2023-03-22T06:26:12.024Z,11.96
2023-03-22T06:28:40.898Z,12.08
2023-03-22T06:31:10.791Z,12.24
2023-03-22T06:33:50.313Z,12.35
2023-03-22T06:36:36.864Z,12.36
2023-03-22T06:39:12.133Z,12.34
2023-03-22T06:41:44.321Z,12.31
2023-03-22T06:44:13.058Z,12.29
2023-03-22T06:47:04.976Z,12.35
2023-03-22T06:49:42.845Z,12.37
2023-03-22T06:52:18.144Z,12.39
2023-03-22T06:54:45.985Z,12.40
2023-03-22T06:57:13.917Z,12.40
2023-03-22T06:59:41.737Z,12.37
2023-03-22T07:02:12.358Z,12.34
2023-03-22T07:04:41.851Z,12.41
2023-03-22T07:07:09.768Z,12.43
2023-03-22T07:09:39.356Z,12.45
2023-03-22T07:12:07.297Z,12.49
2023-03-22T07:14:35.579Z,12.49
2023-03-22T07:17:21.735Z,12.47
2023-03-22T07:19:49.773Z,12.44
2023-03-22T07:22:17.885Z,12.44
2023-03-22T07:24:56.251Z,12.44
2023-03-22T07:27:26.337Z,12.51
2023-03-22T07:29:54.597Z,12.63
2023-03-22T07:32:23.248Z,12.78
2023-03-22T07:35:00.803Z,12.93
2023-03-22T07:37:29.793Z,12.98
2023-03-22T07:39:57.610Z,13.01
2023-03-22T07:42:28.474Z,13.05
2023-03-22T07:45:28.974Z,13.10
2023-03-22T07:48:15.895Z,13.17
2023-03-22T07:50:59.313Z,13.31
2023-03-22T07:53:28.072Z,13.50
2023-03-22T07:55:56.159Z,13.62
2023-03-22T07:58:23.974Z,13.76
2023-03-22T08:00:52.548Z,13.95
2023-03-22T08:03:40.591Z,14.10
2023-03-22T08:06:37.038Z,14.19
2023-03-22T08:09:05.081Z,14.29
2023-03-22T08:11:32.892Z,14.36
2023-03-22T08:14:01.170Z,14.45
2023-03-22T08:16:29.466Z,14.46
2023-03-22T08:18:58.532Z,14.59
2023-03-22T08:21:27.696Z,14.76
2023-03-22T08:23:56.584Z,14.94
2023-03-22T08:26:42.867Z,15.08
2023-03-22T08:29:16.740Z,15.24
2023-03-22T08:31:47.657Z,15.31
2023-03-22T08:34:15.761Z,15.37
2023-03-22T08:36:43.656Z,15.42
2023-03-22T08:39:11.806Z,15.34
2023-03-22T08:42:05.554Z,15.19
2023-03-22T08:44:33.601Z,15.20
2023-03-22T08:47:03.138Z,15.35
2023-03-22T08:49:31.596Z,15.56
2023-03-22T08:52:07.538Z,15.63
2023-03-22T08:54:59.414Z,15.65
2023-03-22T08:57:50.320Z,15.59
2023-03-22T14:02:40.121Z,20.37
2023-03-22T14:05:12.096Z,20.95
2023-03-22T14:07:53.826Z,21.82
2023-03-22T14:10:37.061Z,22.59
2023-03-22T14:13:32.567Z,23.13
2023-03-22T14:16:21.847Z,23.51
2023-03-22T14:18:50.965Z,24.48
2023-03-22T14:21:24.569Z,24.98
